sensor_id;sensor_type;location;lat;lon;timestamp;P1;P2;P0
14880;PMS7003;7533;51.278;12.588;2023-05-29T00:00:19;10.00;7.00;4.00
14880;PMS7003;7533;51.278;12.588;2023-05-29T00:05:23;8.00;7.00;3.50
14880;PMS7003;7533;51.278;12.588;2023-05-29T00:10:27;9.50;7.50;4.00
14880;PMS7003;7533;51.278;12.588;2023-05-29T00:15:29;7.25;6.00;3.75
14880;PMS7003;7533;51.278;12.588;2023-05-29T00:20:34;10.25;7.75;4.00
14880;PMS7003;7533;51.278;12.588;2023-05-29T00:25:37;12.00;9.50;4.00
14880;PMS7003;7533;51.278;12.588;2023-05-29T00:30:41;8.75;6.50;4.00
14880;PMS7003;7533;51.278;12.588;2023-05-29T00:35:45;11.25;8.00;4.50
14880;PMS7003;7533;51.278;12.588;2023-05-29T00:40:48;7.25;5.00;3.00
14880;PMS7003;7533;51.278;12.588;2023-05-29T00:45:52;8.75;7.50;3.00
14880;PMS7003;7533;51.278;12.588;2023-05-29T00:50:56;9.00;7.25;3.00
14880;PMS7003;7533;51.278;12.588;2023-05-29T00:55:59;10.00;8.00;4.00
14880;PMS7003;7533;51.278;12.588;2023-05-29T01:01:02;9.50;6.00;3.25
14880;PMS7003;7533;51.278;12.588;2023-05-29T01:06:07;7.50;7.50;3.75
14880;PMS7003;7533;51.278;12.588;2023-05-29T01:11:12;8.25;6.25;4.00
14880;PMS7003;7533;51.278;12.588;2023-05-29T01:16:31;11.25;10.25;4.50
14880;PMS7003;7533;51.278;12.588;2023-05-29T01:21:46;9.50;7.25;3.00
14880;PMS7003;7533;51.278;12.588;2023-05-29T01:27:01;6.00;5.00;3.00
14880;PMS7003;7533;51.278;12.588;2023-05-29T01:32:08;6.50;6.50;4.00
14880;PMS7003;7533;51.278;12.588;2023-05-29T01:37:12;6.50;6.50;3.50
14880;PMS7003;7533;51.278;12.588;2023-05-29T01:42:16;9.00;6.75;4.00
14880;PMS7003;7533;51.278;12.588;2023-05-29T01:47:19;7.50;5.00;3.00
14880;PMS7003;7533;51.278;12.588;2023-05-29T01:52:23;5.75;5.00;3.00
14880;PMS7003;7533;51.278;12.588;2023-05-29T01:57:27;6.50;6.25;3.50
14880;PMS7003;7533;51.278;12.588;2023-05-29T02:02:30;6.00;5.25;2.50
14880;PMS7003;7533;51.278;12.588;2023-05-29T02:07:33;6.75;6.00;4.00
14880;PMS7003;7533;51.278;12.588;2023-05-29T02:12:39;6.00;5.00;2.75
14880;PMS7003;7533;51.278;12.588;2023-05-29T02:17:42;6.00;5.50;3.75
14880;PMS7003;7533;51.278;12.588;2023-05-29T02:22:45;6.50;6.25;3.00
14880;PMS7003;7533;51.278;12.588;2023-05-29T02:27:50;6.00;5.75;3.75
14880;PMS7003;7533;51.278;12.588;2023-05-29T02:32:52;8.00;7.25;3.75
14880;PMS7003;7533;51.278;12.588;2023-05-29T02:37:55;7.00;6.25;3.75
14880;PMS7003;7533;51.278;12.588;2023-05-29T02:42:59;11.25;8.75;3.75
14880;PMS7003;7533;51.278;12.588;2023-05-29T02:48:05;6.25;6.25;3.00
14880;PMS7003;7533;51.278;12.588;2023-05-29T02:53:09;6.50;4.50;3.25
14880;PMS7003;7533;51.278;12.588;2023-05-29T02:58:13;4.25;4.25;2.75
14880;PMS7003;7533;51.278;12.588;2023-05-29T03:03:17;6.50;6.50;3.00
14880;PMS7003;7533;51.278;12.588;2023-05-29T03:08:20;4.50;4.50;2.00
14880;PMS7003;7533;51.278;12.588;2023-05-29T03:13:24;4.33;4.00;2.00
14880;PMS7003;7533;51.278;12.588;2023-05-29T03:18:36;6.50;6.50;3.00
14880;PMS7003;7533;51.278;12.588;2023-05-29T03:23:39;9.50;6.25;3.75
14880;PMS7003;7533;51.278;12.588;2023-05-29T03:28:43;7.50;5.00;3.00
14880;PMS7003;7533;51.278;12.588;2023-05-29T03:33:46;6.50;5.25;2.50
14880;PMS7003;7533;51.278;12.588;2023-05-29T03:38:54;6.75;6.75;3.50
14880;PMS7003;7533;51.278;12.588;2023-05-29T03:43:58;6.75;6.75;4.50
14880;PMS7003;7533;51.278;12.588;2023-05-29T03:49:02;3.50;3.50;1.50
14880;PMS7003;7533;51.278;12.588;2023-05-29T03:54:05;5.25;3.50;1.75
14880;PMS7003;7533;51.278;12.588;2023-05-29T03:59:10;8.00;7.00;4.00
14880;PMS7003;7533;51.278;12.588;2023-05-29T04:04:13;6.75;5.50;3.00
14880;PMS7003;7533;51.278;12.588;2023-05-29T04:09:16;7.00;5.75;3.00
14880;PMS7003;7533;51.278;12.588;2023-05-29T04:14:20;6.50;5.00;3.00
14880;PMS7003;7533;51.278;12.588;2023-05-29T04:19:23;6.75;6.00;2.75
14880;PMS7003;7533;51.278;12.588;2023-05-29T04:24:26;6.50;5.50;3.00
14880;PMS7003;7533;51.278;12.588;2023-05-29T04:29:30;5.00;5.00;2.75
14880;PMS7003;7533;51.278;12.588;2023-05-29T04:34:35;7.25;6.50;3.00
14880;PMS7003;7533;51.278;12.588;2023-05-29T04:39:39;11.00;6.00;4.00
14880;PMS7003;7533;51.278;12.588;2023-05-29T04:44:45;8.75;5.75;3.00
14880;PMS7003;7533;51.278;12.588;2023-05-29T04:49:48;7.75;6.75;3.00
14880;PMS7003;7533;51.278;12.588;2023-05-29T04:54:51;4.25;4.25;3.00
14880;PMS7003;7533;51.278;12.588;2023-05-29T04:59:56;4.75;4.75;2.50
14880;PMS7003;7533;51.278;12.588;2023-05-29T05:05:00;6.50;4.75;2.00
14880;PMS7003;7533;51.278;12.588;2023-05-29T05:10:03;4.00;3.50;1.50
14880;PMS7003;7533;51.278;12.588;2023-05-29T05:15:09;4.50;4.00;2.25
14880;PMS7003;7533;51.278;12.588;2023-05-29T05:20:13;5.00;5.00;3.00
14880;PMS7003;7533;51.278;12.588;2023-05-29T05:25:17;6.00;5.00;3.00
14880;PMS7003;7533;51.278;12.588;2023-05-29T05:30:22;3.50;2.50;1.75
14880;PMS7003;7533;51.278;12.588;2023-05-29T05:35:25;7.00;5.00;2.75
14880;PMS7003;7533;51.278;12.588;2023-05-29T05:40:28;5.00;4.25;3.00
14880;PMS7003;7533;51.278;12.588;2023-05-29T05:45:38;3.00;2.50;1.00
14880;PMS7003;7533;51.278;12.588;2023-05-29T05:50:43;6.25;5.00;2.50
14880;PMS7003;7533;51.278;12.588;2023-05-29T05:55:46;5.75;5.25;3.00
14880;PMS7003;7533;51.278;12.588;2023-05-29T06:00:51;4.00;4.00;2.00
14880;PMS7003;7533;51.278;12.588;2023-05-29T06:05:54;6.75;6.75;2.75
14880;PMS7003;7533;51.278;12.588;2023-05-29T06:10:58;4.50;3.50;2.00
14880;PMS7003;7533;51.278;12.588;2023-05-29T06:16:02;6.50;6.00;3.25
14880;PMS7003;7533;51.278;12.588;2023-05-29T06:21:05;4.50;2.75;1.00
14880;PMS7003;7533;51.278;12.588;2023-05-29T06:26:17;8.50;5.75;3.00
14880;PMS7003;7533;51.278;12.588;2023-05-29T06:31:24;2.75;2.75;1.75
14880;PMS7003;7533;51.278;12.588;2023-05-29T06:36:27;3.00;3.00;2.00
14880;PMS7003;7533;51.278;12.588;2023-05-29T06:41:30;4.50;4.00;2.25
14880;PMS7003;7533;51.278;12.588;2023-05-29T06:46:34;5.25;5.00;3.00
14880;PMS7003;7533;51.278;12.588;2023-05-29T06:51:38;6.00;5.25;3.25
14880;PMS7003;7533;51.278;12.588;2023-05-29T06:56:40;4.25;3.75;1.75
14880;PMS7003;7533;51.278;12.588;2023-05-29T07:01:45;4.25;4.25;2.00
14880;PMS7003;7533;51.278;12.588;2023-05-29T07:06:48;5.25;5.25;3.25
14880;PMS7003;7533;51.278;12.588;2023-05-29T07:11:51;7.25;5.75;4.00
14880;PMS7003;7533;51.278;12.588;2023-05-29T07:16:55;6.00;6.00;4.00
14880;PMS7003;7533;51.278;12.588;2023-05-29T07:21:58;4.50;4.50;3.00
14880;PMS7003;7533;51.278;12.588;2023-05-29T07:27:01;7.25;7.00;4.00
14880;PMS7003;7533;51.278;12.588;2023-05-29T07:32:08;4.75;4.75;3.00
14880;PMS7003;7533;51.278;12.588;2023-05-29T07:37:13;6.50;5.50;3.75
14880;PMS7003;7533;51.278;12.588;2023-05-29T07:42:16;5.00;3.00;2.00
14880;PMS7003;7533;51.278;12.588;2023-05-29T07:47:20;6.00;6.00;4.00
14880;PMS7003;7533;51.278;12.588;2023-05-29T07:52:23;5.75;4.50;2.00
14880;PMS7003;7533;51.278;12.588;2023-05-29T07:57:27;6.50;6.00;4.00
14880;PMS7003;7533;51.278;12.588;2023-05-29T08:02:34;4.25;3.50;3.25
14880;PMS7003;7533;51.278;12.588;2023-05-29T08:08:13;4.00;4.00;3.00
14880;PMS7003;7533;51.278;12.588;2023-05-29T08:13:17;5.50;5.50;3.00
14880;PMS7003;7533;51.278;12.588;2023-05-29T08:18:24;5.75;5.00;4.00
14880;PMS7003;7533;51.278;12.588;2023-05-29T08:23:28;5.00;4.50;3.00
14880;PMS7003;7533;51.278;12.588;2023-05-29T08:28:35;6.00;4.50;3.00
14880;PMS7003;7533;51.278;12.588;2023-05-29T08:33:43;5.50;5.00;4.00
14880;PMS7003;7533;51.278;12.588;2023-05-29T08:38:46;5.00;4.25;3.00
14880;PMS7003;7533;51.278;12.588;2023-05-29T08:43:49;6.00;5.00;3.00
14880;PMS7003;7533;51.278;12.588;2023-05-29T08:48:54;5.00;4.50;1.75
14880;PMS7003;7533;51.278;12.588;2023-05-29T08:54:00;3.00;3.00;2.00
14880;PMS7003;7533;51.278;12.588;2023-05-29T08:59:04;5.00;5.00;2.50
14880;PMS7003;7533;51.278;12.588;2023-05-29T09:04:11;5.50;5.25;3.00
14880;PMS7003;7533;51.278;12.588;2023-05-29T09:09:14;3.75;3.75;2.25
14880;PMS7003;7533;51.278;12.588;2023-05-29T09:14:33;5.25;5.00;2.00
14880;PMS7003;7533;51.278;12.588;2023-05-29T09:19:39;5.25;4.50;2.75
14880;PMS7003;7533;51.278;12.588;2023-05-29T09:24:43;3.75;3.50;1.25
14880;PMS7003;7533;51.278;12.588;2023-05-29T09:29:49;5.00;5.00;2.75
14880;PMS7003;7533;51.278;12.588;2023-05-29T09:34:54;3.50;3.50;2.00
14880;PMS7003;7533;51.278;12.588;2023-05-29T09:40:02;3.25;3.25;1.50
14880;PMS7003;7533;51.278;12.588;2023-05-29T09:45:25;5.50;4.50;3.00
14880;PMS7003;7533;51.278;12.588;2023-05-29T09:50:39;3.75;3.25;2.00
14880;PMS7003;7533;51.278;12.588;2023-05-29T09:55:43;5.25;5.25;2.75
14880;PMS7003;7533;51.278;12.588;2023-05-29T10:00:47;3.50;3.50;2.00
14880;PMS7003;7533;51.278;12.588;2023-05-29T10:05:54;4.25;2.00;1.00
14880;PMS7003;7533;51.278;12.588;2023-05-29T10:10:59;5.00;4.75;2.00
14880;PMS7003;7533;51.278;12.588;2023-05-29T10:16:06;3.25;3.25;1.50
14880;PMS7003;7533;51.278;12.588;2023-05-29T10:21:12;2.75;2.75;1.75
14880;PMS7003;7533;51.278;12.588;2023-05-29T10:26:18;4.50;3.00;2.00
14880;PMS7003;7533;51.278;12.588;2023-05-29T10:31:24;5.50;5.25;2.75
14880;PMS7003;7533;51.278;12.588;2023-05-29T10:36:38;4.00;4.00;2.00
14880;PMS7003;7533;51.278;12.588;2023-05-29T10:41:46;3.00;2.25;1.00
14880;PMS7003;7533;51.278;12.588;2023-05-29T10:47:00;4.00;4.00;2.50
14880;PMS7003;7533;51.278;12.588;2023-05-29T10:52:06;4.50;3.00;1.50
14880;PMS7003;7533;51.278;12.588;2023-05-29T10:57:12;3.75;2.00;1.50
14880;PMS7003;7533;51.278;12.588;2023-05-29T11:02:18;3.75;2.75;1.75
14880;PMS7003;7533;51.278;12.588;2023-05-29T11:12:58;2.50;2.50;1.50
14880;PMS7003;7533;51.278;12.588;2023-05-29T11:18:05;3.50;3.50;2.00
14880;PMS7003;7533;51.278;12.588;2023-05-29T11:23:13;4.00;3.75;2.00
14880;PMS7003;7533;51.278;12.588;2023-05-29T11:28:19;2.75;2.75;1.00
14880;PMS7003;7533;51.278;12.588;2023-05-29T11:33:26;2.50;1.75;0.75
14880;PMS7003;7533;51.278;12.588;2023-05-29T11:38:31;3.25;3.00;1.00
14880;PMS7003;7533;51.278;12.588;2023-05-29T11:43:34;2.25;2.00;1.00
14880;PMS7003;7533;51.278;12.588;2023-05-29T11:48:44;2.75;2.00;0.25
14880;PMS7003;7533;51.278;12.588;2023-05-29T11:53:49;2.75;2.75;1.00
14880;PMS7003;7533;51.278;12.588;2023-05-29T11:58:55;1.75;1.75;1.00
14880;PMS7003;7533;51.278;12.588;2023-05-29T12:04:01;5.00;2.75;1.75
14880;PMS7003;7533;51.278;12.588;2023-05-29T12:09:05;5.50;3.25;1.75
14880;PMS7003;7533;51.278;12.588;2023-05-29T12:14:08;2.50;2.50;1.00
14880;PMS7003;7533;51.278;12.588;2023-05-29T12:19:11;4.25;3.25;1.50
14880;PMS7003;7533;51.278;12.588;2023-05-29T12:24:16;2.00;2.00;1.00
14880;PMS7003;7533;51.278;12.588;2023-05-29T12:29:29;3.00;3.00;1.00
14880;PMS7003;7533;51.278;12.588;2023-05-29T12:34:33;2.75;2.75;1.00
14880;PMS7003;7533;51.278;12.588;2023-05-29T12:39:40;2.50;2.50;1.25
14880;PMS7003;7533;51.278;12.588;2023-05-29T12:44:43;2.75;2.75;1.75
14880;PMS7003;7533;51.278;12.588;2023-05-29T12:49:46;2.50;1.25;0.25
14880;PMS7003;7533;51.278;12.588;2023-05-29T12:54:50;4.00;2.00;1.00
14880;PMS7003;7533;51.278;12.588;2023-05-29T12:59:53;3.25;2.25;0.50
14880;PMS7003;7533;51.278;12.588;2023-05-29T13:04:57;4.00;3.00;1.00
14880;PMS7003;7533;51.278;12.588;2023-05-29T13:10:01;3.25;2.50;1.25
14880;PMS7003;7533;51.278;12.588;2023-05-29T13:15:05;2.00;2.00;1.00
14880;PMS7003;7533;51.278;12.588;2023-05-29T13:20:09;3.00;2.50;1.00
14880;PMS7003;7533;51.278;12.588;2023-05-29T13:25:16;4.00;3.25;0.00
14880;PMS7003;7533;51.278;12.588;2023-05-29T13:30:21;1.50;1.50;0.25
14880;PMS7003;7533;51.278;12.588;2023-05-29T13:35:24;2.75;1.75;0.00
14880;PMS7003;7533;51.278;12.588;2023-05-29T13:40:29;2.75;1.50;1.50
14880;PMS7003;7533;51.278;12.588;2023-05-29T13:45:33;3.00;3.00;1.50
14880;PMS7003;7533;51.278;12.588;2023-05-29T13:50:36;1.00;1.00;0.00
14880;PMS7003;7533;51.278;12.588;2023-05-29T13:55:41;1.50;1.00;0.00
14880;PMS7003;7533;51.278;12.588;2023-05-29T14:00:44;1.25;1.00;0.00
14880;PMS7003;7533;51.278;12.588;2023-05-29T14:05:48;2.75;2.25;0.50
14880;PMS7003;7533;51.278;12.588;2023-05-29T14:10:53;2.00;2.00;1.00
14880;PMS7003;7533;51.278;12.588;2023-05-29T14:15:56;3.50;3.50;1.00
14880;PMS7003;7533;51.278;12.588;2023-05-29T14:20:59;1.00;1.00;1.00
14880;PMS7003;7533;51.278;12.588;2023-05-29T14:26:03;1.75;1.75;0.00
14880;PMS7003;7533;51.278;12.588;2023-05-29T14:31:07;1.00;0.50;0.00
14880;PMS7003;7533;51.278;12.588;2023-05-29T14:36:10;2.50;1.75;0.25
14880;PMS7003;7533;51.278;12.588;2023-05-29T14:41:15;1.00;1.00;0.00
14880;PMS7003;7533;51.278;12.588;2023-05-29T14:46:18;3.00;1.00;0.75
14880;PMS7003;7533;51.278;12.588;2023-05-29T14:51:21;1.00;1.00;0.00
14880;PMS7003;7533;51.278;12.588;2023-05-29T14:56:27;2.00;0.00;0.00
14880;PMS7003;7533;51.278;12.588;2023-05-29T15:01:30;2.00;2.00;1.00
14880;PMS7003;7533;51.278;12.588;2023-05-29T15:06:33;1.25;1.25;0.00
14880;PMS7003;7533;51.278;12.588;2023-05-29T15:11:37;1.00;1.00;0.00
14880;PMS7003;7533;51.278;12.588;2023-05-29T15:16:40;1.75;1.75;1.00
14880;PMS7003;7533;51.278;12.588;2023-05-29T15:21:43;1.00;1.00;0.75
14880;PMS7003;7533;51.278;12.588;2023-05-29T15:26:48;2.00;2.00;0.50
14880;PMS7003;7533;51.278;12.588;2023-05-29T15:31:51;1.25;1.00;0.00
14880;PMS7003;7533;51.278;12.588;2023-05-29T15:36:54;1.75;1.00;1.00
14880;PMS7003;7533;51.278;12.588;2023-05-29T15:41:58;3.25;1.50;0.00
14880;PMS7003;7533;51.278;12.588;2023-05-29T15:47:01;2.75;1.75;1.00
14880;PMS7003;7533;51.278;12.588;2023-05-29T15:52:04;1.25;0.00;0.00
14880;PMS7003;7533;51.278;12.588;2023-05-29T15:57:09;2.25;2.25;1.00
14880;PMS7003;7533;51.278;12.588;2023-05-29T16:02:12;1.00;1.00;0.00
14880;PMS7003;7533;51.278;12.588;2023-05-29T16:07:15;2.50;1.25;0.00
14880;PMS7003;7533;51.278;12.588;2023-05-29T16:12:19;1.00;1.00;0.00
14880;PMS7003;7533;51.278;12.588;2023-05-29T16:17:23;2.00;1.25;0.00
14880;PMS7003;7533;51.278;12.588;2023-05-29T16:22:26;1.50;1.50;1.00
14880;PMS7003;7533;51.278;12.588;2023-05-29T16:27:43;1.25;1.00;0.00
14880;PMS7003;7533;51.278;12.588;2023-05-29T16:32:46;0.00;0.00;0.00
14880;PMS7003;7533;51.278;12.588;2023-05-29T16:37:49;0.75;0.50;0.00
14880;PMS7003;7533;51.278;12.588;2023-05-29T16:42:54;1.50;1.50;0.75
14880;PMS7003;7533;51.278;12.588;2023-05-29T16:47:57;0.25;0.25;0.00
14880;PMS7003;7533;51.278;12.588;2023-05-29T16:53:00;2.75;1.00;0.00
14880;PMS7003;7533;51.278;12.588;2023-05-29T16:58:05;1.00;1.00;0.00
14880;PMS7003;7533;51.278;12.588;2023-05-29T17:03:08;1.00;1.00;0.00
14880;PMS7003;7533;51.278;12.588;2023-05-29T17:08:11;1.25;1.00;0.00
14880;PMS7003;7533;51.278;12.588;2023-05-29T17:13:16;1.00;1.00;0.00
14880;PMS7003;7533;51.278;12.588;2023-05-29T17:18:19;2.00;1.00;0.25
14880;PMS7003;7533;51.278;12.588;2023-05-29T17:23:22;1.00;1.00;0.25
14880;PMS7003;7533;51.278;12.588;2023-05-29T17:28:26;1.25;1.25;1.00
14880;PMS7003;7533;51.278;12.588;2023-05-29T17:33:29;3.00;3.00;1.00
14880;PMS7003;7533;51.278;12.588;2023-05-29T17:38:32;2.00;2.00;0.00
14880;PMS7003;7533;51.278;12.588;2023-05-29T17:43:36;3.00;2.25;0.50
14880;PMS7003;7533;51.278;12.588;2023-05-29T17:48:40;3.75;1.75;0.50
14880;PMS7003;7533;51.278;12.588;2023-05-29T17:53:43;3.25;2.50;1.00
14880;PMS7003;7533;51.278;12.588;2023-05-29T17:58:47;1.75;1.75;0.00
14880;PMS7003;7533;51.278;12.588;2023-05-29T18:03:51;1.75;1.25;0.00
14880;PMS7003;7533;51.278;12.588;2023-05-29T18:08:54;3.75;1.50;0.25
14880;PMS7003;7533;51.278;12.588;2023-05-29T18:13:58;4.00;2.50;1.00
14880;PMS7003;7533;51.278;12.588;2023-05-29T18:19:01;1.50;1.25;0.25
14880;PMS7003;7533;51.278;12.588;2023-05-29T18:24:04;1.25;1.00;0.00
14880;PMS7003;7533;51.278;12.588;2023-05-29T18:29:10;2.00;0.75;0.00
14880;PMS7003;7533;51.278;12.588;2023-05-29T18:34:13;2.50;2.00;0.75
14880;PMS7003;7533;51.278;12.588;2023-05-29T18:39:16;1.00;1.00;0.75
14880;PMS7003;7533;51.278;12.588;2023-05-29T18:44:21;2.00;2.00;1.00
14880;PMS7003;7533;51.278;12.588;2023-05-29T18:49:24;2.00;2.00;1.00
14880;PMS7003;7533;51.278;12.588;2023-05-29T18:54:29;1.50;1.00;0.00
14880;PMS7003;7533;51.278;12.588;2023-05-29T18:59:33;2.50;2.50;1.00
14880;PMS7003;7533;51.278;12.588;2023-05-29T19:04:36;2.25;1.00;0.50
14880;PMS7003;7533;51.278;12.588;2023-05-29T19:09:39;1.00;1.00;1.00
14880;PMS7003;7533;51.278;12.588;2023-05-29T19:14:44;1.00;1.00;0.00
14880;PMS7003;7533;51.278;12.588;2023-05-29T19:19:47;1.25;1.25;0.00
14880;PMS7003;7533;51.278;12.588;2023-05-29T19:24:50;1.00;1.00;0.00
14880;PMS7003;7533;51.278;12.588;2023-05-29T19:29:54;1.00;1.00;0.00
14880;PMS7003;7533;51.278;12.588;2023-05-29T19:34:57;2.50;2.50;1.00
14880;PMS7003;7533;51.278;12.588;2023-05-29T19:40:00;3.00;2.75;1.00
14880;PMS7003;7533;51.278;12.588;2023-05-29T19:45:06;1.50;1.00;0.00
14880;PMS7003;7533;51.278;12.588;2023-05-29T19:50:09;2.00;1.75;0.75
14880;PMS7003;7533;51.278;12.588;2023-05-29T19:55:15;1.50;1.50;0.00
14880;PMS7003;7533;51.278;12.588;2023-05-29T20:00:19;3.00;2.50;1.00
14880;PMS7003;7533;51.278;12.588;2023-05-29T20:05:22;1.00;1.00;0.25
14880;PMS7003;7533;51.278;12.588;2023-05-29T20:10:25;2.25;1.75;1.00
14880;PMS7003;7533;51.278;12.588;2023-05-29T20:15:31;2.50;1.50;0.75
14880;PMS7003;7533;51.278;12.588;2023-05-29T20:20:34;2.00;1.00;0.00
14880;PMS7003;7533;51.278;12.588;2023-05-29T20:25:39;1.00;1.00;0.00
14880;PMS7003;7533;51.278;12.588;2023-05-29T20:30:43;1.00;1.00;0.00
14880;PMS7003;7533;51.278;12.588;2023-05-29T20:35:46;0.00;0.00;0.00
14880;PMS7003;7533;51.278;12.588;2023-05-29T20:40:50;1.50;1.50;1.00
14880;PMS7003;7533;51.278;12.588;2023-05-29T20:45:57;2.75;2.00;0.25
14880;PMS7003;7533;51.278;12.588;2023-05-29T20:51:00;1.00;1.00;0.00
14880;PMS7003;7533;51.278;12.588;2023-05-29T20:56:05;1.00;0.50;0.00
14880;PMS7003;7533;51.278;12.588;2023-05-29T21:01:10;3.00;2.25;0.25
14880;PMS7003;7533;51.278;12.588;2023-05-29T21:06:13;2.00;1.75;1.00
14880;PMS7003;7533;51.278;12.588;2023-05-29T21:11:15;1.75;1.00;0.00
14880;PMS7003;7533;51.278;12.588;2023-05-29T21:16:21;1.00;1.00;0.00
14880;PMS7003;7533;51.278;12.588;2023-05-29T21:21:24;2.25;1.00;0.00
14880;PMS7003;7533;51.278;12.588;2023-05-29T21:26:27;1.00;1.00;0.25
14880;PMS7003;7533;51.278;12.588;2023-05-29T21:31:32;2.25;2.25;1.00
14880;PMS7003;7533;51.278;12.588;2023-05-29T21:36:35;0.75;0.75;0.00
14880;PMS7003;7533;51.278;12.588;2023-05-29T21:41:39;3.00;1.00;0.00
14880;PMS7003;7533;51.278;12.588;2023-05-29T21:46:44;0.00;0.00;0.00
14880;PMS7003;7533;51.278;12.588;2023-05-29T21:51:47;1.00;1.00;0.00
14880;PMS7003;7533;51.278;12.588;2023-05-29T21:56:52;1.50;1.50;0.00
14880;PMS7003;7533;51.278;12.588;2023-05-29T22:01:56;1.00;1.00;0.00
14880;PMS7003;7533;51.278;12.588;2023-05-29T22:07:00;2.75;1.75;0.50
14880;PMS7003;7533;51.278;12.588;2023-05-29T22:12:03;1.00;0.50;0.00
14880;PMS7003;7533;51.278;12.588;2023-05-29T22:17:07;0.25;0.25;0.00
14880;PMS7003;7533;51.278;12.588;2023-05-29T22:22:13;1.00;0.25;0.00
14880;PMS7003;7533;51.278;12.588;2023-05-29T22:27:16;1.00;1.00;0.00
14880;PMS7003;7533;51.278;12.588;2023-05-29T22:32:20;2.75;0.50;0.00
14880;PMS7003;7533;51.278;12.588;2023-05-29T22:37:23;1.50;1.50;0.00
14880;PMS7003;7533;51.278;12.588;2023-05-29T22:42:26;0.25;0.25;0.00
14880;PMS7003;7533;51.278;12.588;2023-05-29T22:47:30;1.00;1.00;0.00
14880;PMS7003;7533;51.278;12.588;2023-05-29T22:52:33;2.00;1.00;0.00
14880;PMS7003;7533;51.278;12.588;2023-05-29T22:57:36;0.25;0.00;0.00
14880;PMS7003;7533;51.278;12.588;2023-05-29T23:02:41;1.00;1.00;0.00
14880;PMS7003;7533;51.278;12.588;2023-05-29T23:07:44;0.75;0.75;0.00
14880;PMS7003;7533;51.278;12.588;2023-05-29T23:12:49;1.50;1.50;0.25
14880;PMS7003;7533;51.278;12.588;2023-05-29T23:17:53;0.50;0.50;0.00
14880;PMS7003;7533;51.278;12.588;2023-05-29T23:22:56;4.00;1.50;0.00
14880;PMS7003;7533;51.278;12.588;2023-05-29T23:27:59;0.25;0.25;0.00
14880;PMS7003;7533;51.278;12.588;2023-05-29T23:33:03;1.00;1.00;0.00
14880;PMS7003;7533;51.278;12.588;2023-05-29T23:38:06;0.00;0.00;0.00
14880;PMS7003;7533;51.278;12.588;2023-05-29T23:43:12;0.75;0.75;0.00
14880;PMS7003;7533;51.278;12.588;2023-05-29T23:48:16;1.00;1.00;0.00
14880;PMS7003;7533;51.278;12.588;2023-05-29T23:53:19;2.25;1.00;0.00
14880;PMS7003;7533;51.278;12.588;2023-05-29T23:58:23;1.00;1.00;0.00
